sensor_id;sensor_type;location;lat;lon;timestamp;P1;durP1;ratioP1;P2;durP2;ratioP2
30553;SDS011;17335;50.720;7.452;2023-04-01T00:01:02;4.57;;;1.60;;
30553;SDS011;17335;50.720;7.452;2023-04-01T00:03:31;2.35;;;0.70;;
30553;SDS011;17335;50.720;7.452;2023-04-01T00:06:00;2.00;;;0.73;;
30553;SDS011;17335;50.720;7.452;2023-04-01T00:08:27;1.95;;;0.68;;
30553;SDS011;17335;50.720;7.452;2023-04-01T00:10:55;1.60;;;0.70;;
30553;SDS011;17335;50.720;7.452;2023-04-01T00:13:24;2.70;;;0.60;;
30553;SDS011;17335;50.720;7.452;2023-04-01T00:15:53;0.88;;;0.50;;
30553;SDS011;17335;50.720;7.452;2023-04-01T00:18:24;1.85;;;0.60;;
30553;SDS011;17335;50.720;7.452;2023-04-01T00:20:52;6.38;;;1.05;;
30553;SDS011;17335;50.720;7.452;2023-04-01T00:23:19;2.45;;;0.50;;
30553;SDS011;17335;50.720;7.452;2023-04-01T00:25:47;1.33;;;0.70;;
30553;SDS011;17335;50.720;7.452;2023-04-01T00:28:18;2.42;;;0.75;;
30553;SDS011;17335;50.720;7.452;2023-04-01T00:30:46;3.33;;;0.70;;
30553;SDS011;17335;50.720;7.452;2023-04-01T00:33:13;2.88;;;0.60;;
30553;SDS011;17335;50.720;7.452;2023-04-01T00:35:40;2.90;;;0.70;;
30553;SDS011;17335;50.720;7.452;2023-04-01T00:38:07;1.75;;;0.50;;
30553;SDS011;17335;50.720;7.452;2023-04-01T00:40:35;0.88;;;0.50;;
30553;SDS011;17335;50.720;7.452;2023-04-01T00:43:09;2.17;;;0.70;;
30553;SDS011;17335;50.720;7.452;2023-04-01T00:45:39;2.13;;;0.82;;
30553;SDS011;17335;50.720;7.452;2023-04-01T00:48:10;1.23;;;0.50;;
30553;SDS011;17335;50.720;7.452;2023-04-01T00:50:39;1.05;;;0.50;;
30553;SDS011;17335;50.720;7.452;2023-04-01T00:53:09;3.00;;;0.65;;
30553;SDS011;17335;50.720;7.452;2023-04-01T00:55:37;1.25;;;0.60;;
30553;SDS011;17335;50.720;7.452;2023-04-01T00:58:08;1.30;;;0.65;;
30553;SDS011;17335;50.720;7.452;2023-04-01T01:00:39;0.50;;;0.50;;
30553;SDS011;17335;50.720;7.452;2023-04-01T01:03:06;3.30;;;0.50;;
30553;SDS011;17335;50.720;7.452;2023-04-01T01:11:57;1.42;;;0.60;;
30553;SDS011;17335;50.720;7.452;2023-04-01T01:14:32;1.50;;;0.60;;
30553;SDS011;17335;50.720;7.452;2023-04-01T01:17:56;2.33;;;0.65;;
30553;SDS011;17335;50.720;7.452;2023-04-01T01:20:17;6.88;;;0.70;;
30553;SDS011;17335;50.720;7.452;2023-04-01T01:31:24;1.67;;;0.50;;
30553;SDS011;17335;50.720;7.452;2023-04-01T01:36:48;0.57;;;0.55;;
30553;SDS011;17335;50.720;7.452;2023-04-01T01:39:19;1.38;;;0.50;;
30553;SDS011;17335;50.720;7.452;2023-04-01T01:41:52;1.15;;;0.55;;
30553;SDS011;17335;50.720;7.452;2023-04-01T01:44:21;1.35;;;0.50;;
30553;SDS011;17335;50.720;7.452;2023-04-01T01:46:50;2.15;;;0.40;;
30553;SDS011;17335;50.720;7.452;2023-04-01T01:49:17;0.88;;;0.47;;
30553;SDS011;17335;50.720;7.452;2023-04-01T01:51:45;1.08;;;0.50;;
30553;SDS011;17335;50.720;7.452;2023-04-01T01:54:15;0.57;;;0.45;;
30553;SDS011;17335;50.720;7.452;2023-04-01T01:56:45;1.65;;;0.60;;
30553;SDS011;17335;50.720;7.452;2023-04-01T01:59:17;0.47;;;0.47;;
30553;SDS011;17335;50.720;7.452;2023-04-01T02:01:48;5.45;;;0.50;;
30553;SDS011;17335;50.720;7.452;2023-04-01T02:04:18;1.40;;;0.70;;
30553;SDS011;17335;50.720;7.452;2023-04-01T02:06:48;2.25;;;0.60;;
30553;SDS011;17335;50.720;7.452;2023-04-01T02:09:22;0.85;;;0.50;;
30553;SDS011;17335;50.720;7.452;2023-04-01T02:11:53;0.85;;;0.60;;
30553;SDS011;17335;50.720;7.452;2023-04-01T02:14:28;1.05;;;0.60;;
30553;SDS011;17335;50.720;7.452;2023-04-01T02:17:10;0.80;;;0.60;;
30553;SDS011;17335;50.720;7.452;2023-04-01T02:19:43;1.80;;;0.65;;
30553;SDS011;17335;50.720;7.452;2023-04-01T02:22:16;2.47;;;0.75;;
30553;SDS011;17335;50.720;7.452;2023-04-01T02:24:46;1.40;;;0.50;;
30553;SDS011;17335;50.720;7.452;2023-04-01T02:27:16;2.17;;;0.57;;
30553;SDS011;17335;50.720;7.452;2023-04-01T02:29:43;2.10;;;0.60;;
30553;SDS011;17335;50.720;7.452;2023-04-01T02:32:11;4.57;;;0.60;;
30553;SDS011;17335;50.720;7.452;2023-04-01T02:34:39;1.45;;;0.63;;
30553;SDS011;17335;50.720;7.452;2023-04-01T02:37:07;2.58;;;0.90;;
30553;SDS011;17335;50.720;7.452;2023-04-01T02:39:34;1.20;;;0.68;;
30553;SDS011;17335;50.720;7.452;2023-04-01T02:42:01;1.75;;;0.70;;
30553;SDS011;17335;50.720;7.452;2023-04-01T02:44:27;1.60;;;0.60;;
30553;SDS011;17335;50.720;7.452;2023-04-01T02:46:54;1.88;;;1.13;;
30553;SDS011;17335;50.720;7.452;2023-04-01T02:49:21;4.07;;;0.88;;
30553;SDS011;17335;50.720;7.452;2023-04-01T02:51:48;1.05;;;0.60;;
30553;SDS011;17335;50.720;7.452;2023-04-01T02:54:14;4.13;;;0.70;;
30553;SDS011;17335;50.720;7.452;2023-04-01T02:56:41;3.53;;;0.88;;
30553;SDS011;17335;50.720;7.452;2023-04-01T02:59:08;1.75;;;0.50;;
30553;SDS011;17335;50.720;7.452;2023-04-01T03:01:35;1.35;;;0.60;;
30553;SDS011;17335;50.720;7.452;2023-04-01T03:04:02;2.75;;;0.60;;
30553;SDS011;17335;50.720;7.452;2023-04-01T03:06:28;1.05;;;0.50;;
30553;SDS011;17335;50.720;7.452;2023-04-01T03:08:55;1.42;;;0.60;;
30553;SDS011;17335;50.720;7.452;2023-04-01T03:11:22;1.63;;;0.60;;
30553;SDS011;17335;50.720;7.452;2023-04-01T03:13:49;0.68;;;0.50;;
30553;SDS011;17335;50.720;7.452;2023-04-01T03:16:16;3.42;;;0.70;;
30553;SDS011;17335;50.720;7.452;2023-04-01T03:18:43;2.35;;;0.50;;
30553;SDS011;17335;50.720;7.452;2023-04-01T03:21:17;1.30;;;0.68;;
30553;SDS011;17335;50.720;7.452;2023-04-01T03:23:45;1.00;;;0.70;;
30553;SDS011;17335;50.720;7.452;2023-04-01T03:26:12;3.53;;;0.75;;
30553;SDS011;17335;50.720;7.452;2023-04-01T03:28:39;1.33;;;0.60;;
30553;SDS011;17335;50.720;7.452;2023-04-01T03:31:06;3.83;;;1.08;;
30553;SDS011;17335;50.720;7.452;2023-04-01T03:33:33;1.05;;;0.40;;
30553;SDS011;17335;50.720;7.452;2023-04-01T03:36:00;0.50;;;0.50;;
30553;SDS011;17335;50.720;7.452;2023-04-01T03:38:27;5.28;;;1.10;;
30553;SDS011;17335;50.720;7.452;2023-04-01T03:40:53;0.57;;;0.52;;
30553;SDS011;17335;50.720;7.452;2023-04-01T03:43:20;0.85;;;0.43;;
30553;SDS011;17335;50.720;7.452;2023-04-01T03:45:48;1.00;;;0.60;;
30553;SDS011;17335;50.720;7.452;2023-04-01T03:48:16;2.72;;;0.50;;
30553;SDS011;17335;50.720;7.452;2023-04-01T03:50:43;0.40;;;0.40;;
30553;SDS011;17335;50.720;7.452;2023-04-01T03:53:11;2.17;;;0.52;;
30553;SDS011;17335;50.720;7.452;2023-04-01T03:55:37;2.20;;;0.50;;
30553;SDS011;17335;50.720;7.452;2023-04-01T03:58:05;0.40;;;0.40;;
30553;SDS011;17335;50.720;7.452;2023-04-01T04:00:32;1.95;;;0.40;;
30553;SDS011;17335;50.720;7.452;2023-04-01T04:02:59;1.05;;;0.47;;
30553;SDS011;17335;50.720;7.452;2023-04-01T04:05:27;0.40;;;0.40;;
30553;SDS011;17335;50.720;7.452;2023-04-01T04:07:53;2.15;;;0.50;;
30553;SDS011;17335;50.720;7.452;2023-04-01T04:10:20;1.45;;;0.68;;
30553;SDS011;17335;50.720;7.452;2023-04-01T04:12:49;0.85;;;0.50;;
30553;SDS011;17335;50.720;7.452;2023-04-01T04:15:16;1.20;;;0.70;;
30553;SDS011;17335;50.720;7.452;2023-04-01T04:17:43;1.60;;;0.47;;
30553;SDS011;17335;50.720;7.452;2023-04-01T04:20:10;1.38;;;0.50;;
30553;SDS011;17335;50.720;7.452;2023-04-01T04:22:37;1.50;;;0.60;;
30553;SDS011;17335;50.720;7.452;2023-04-01T04:25:04;0.65;;;0.55;;
30553;SDS011;17335;50.720;7.452;2023-04-01T04:27:30;0.55;;;0.50;;
30553;SDS011;17335;50.720;7.452;2023-04-01T04:29:57;1.40;;;0.50;;
30553;SDS011;17335;50.720;7.452;2023-04-01T04:32:24;0.40;;;0.40;;
30553;SDS011;17335;50.720;7.452;2023-04-01T04:34:51;0.82;;;0.50;;
30553;SDS011;17335;50.720;7.452;2023-04-01T04:37:17;3.63;;;0.45;;
30553;SDS011;17335;50.720;7.452;2023-04-01T04:39:44;1.58;;;0.50;;
30553;SDS011;17335;50.720;7.452;2023-04-01T04:42:11;0.68;;;0.40;;
30553;SDS011;17335;50.720;7.452;2023-04-01T04:44:37;2.38;;;0.50;;
30553;SDS011;17335;50.720;7.452;2023-04-01T04:47:06;1.05;;;0.52;;
30553;SDS011;17335;50.720;7.452;2023-04-01T04:53:19;0.35;;;0.35;;
30553;SDS011;17335;50.720;7.452;2023-04-01T04:59:33;0.40;;;0.40;;
30553;SDS011;17335;50.720;7.452;2023-04-01T05:02:00;0.40;;;0.40;;
30553;SDS011;17335;50.720;7.452;2023-04-01T05:04:27;2.58;;;0.60;;
30553;SDS011;17335;50.720;7.452;2023-04-01T05:06:53;0.30;;;0.30;;
30553;SDS011;17335;50.720;7.452;2023-04-01T05:09:20;0.68;;;0.40;;
30553;SDS011;17335;50.720;7.452;2023-04-01T05:11:47;0.40;;;0.40;;
30553;SDS011;17335;50.720;7.452;2023-04-01T05:14:14;0.40;;;0.40;;
30553;SDS011;17335;50.720;7.452;2023-04-01T05:16:41;1.00;;;0.45;;
30553;SDS011;17335;50.720;7.452;2023-04-01T05:19:07;0.50;;;0.40;;
30553;SDS011;17335;50.720;7.452;2023-04-01T05:21:34;0.70;;;0.50;;
30553;SDS011;17335;50.720;7.452;2023-04-01T05:24:00;0.55;;;0.45;;
30553;SDS011;17335;50.720;7.452;2023-04-01T05:26:27;1.48;;;0.40;;
30553;SDS011;17335;50.720;7.452;2023-04-01T05:28:54;0.38;;;0.38;;
30553;SDS011;17335;50.720;7.452;2023-04-01T05:31:20;4.30;;;0.60;;
30553;SDS011;17335;50.720;7.452;2023-04-01T05:33:47;2.25;;;0.50;;
30553;SDS011;17335;50.720;7.452;2023-04-01T05:36:14;1.75;;;0.40;;
30553;SDS011;17335;50.720;7.452;2023-04-01T05:38:43;1.85;;;0.50;;
30553;SDS011;17335;50.720;7.452;2023-04-01T05:41:12;0.40;;;0.40;;
30553;SDS011;17335;50.720;7.452;2023-04-01T05:43:39;0.40;;;0.40;;
30553;SDS011;17335;50.720;7.452;2023-04-01T05:46:06;0.82;;;0.40;;
30553;SDS011;17335;50.720;7.452;2023-04-01T05:48:33;0.40;;;0.40;;
30553;SDS011;17335;50.720;7.452;2023-04-01T05:51:01;0.38;;;0.38;;
30553;SDS011;17335;50.720;7.452;2023-04-01T05:53:28;0.50;;;0.40;;
30553;SDS011;17335;50.720;7.452;2023-04-01T05:55:55;0.63;;;0.40;;
30553;SDS011;17335;50.720;7.452;2023-04-01T05:58:21;0.40;;;0.40;;
30553;SDS011;17335;50.720;7.452;2023-04-01T06:00:48;0.47;;;0.47;;
30553;SDS011;17335;50.720;7.452;2023-04-01T06:03:31;0.40;;;0.40;;
30553;SDS011;17335;50.720;7.452;2023-04-01T06:05:58;0.40;;;0.40;;
30553;SDS011;17335;50.720;7.452;2023-04-01T06:08:25;0.40;;;0.40;;
30553;SDS011;17335;50.720;7.452;2023-04-01T06:13:30;0.52;;;0.45;;
30553;SDS011;17335;50.720;7.452;2023-04-01T06:18:41;0.40;;;0.40;;
30553;SDS011;17335;50.720;7.452;2023-04-01T06:24:10;0.40;;;0.40;;
30553;SDS011;17335;50.720;7.452;2023-04-01T06:29:49;0.40;;;0.40;;
30553;SDS011;17335;50.720;7.452;2023-04-01T06:35:21;0.40;;;0.40;;
30553;SDS011;17335;50.720;7.452;2023-04-01T06:38:15;0.35;;;0.35;;
30553;SDS011;17335;50.720;7.452;2023-04-01T06:49:17;0.85;;;0.40;;
30553;SDS011;17335;50.720;7.452;2023-04-01T06:51:54;0.47;;;0.45;;
30553;SDS011;17335;50.720;7.452;2023-04-01T06:54:42;0.40;;;0.40;;
30553;SDS011;17335;50.720;7.452;2023-04-01T07:00:04;0.60;;;0.40;;
30553;SDS011;17335;50.720;7.452;2023-04-01T07:02:50;2.10;;;0.55;;
30553;SDS011;17335;50.720;7.452;2023-04-01T07:05:24;1.55;;;0.45;;
30553;SDS011;17335;50.720;7.452;2023-04-01T07:08:03;0.70;;;0.40;;
30553;SDS011;17335;50.720;7.452;2023-04-01T07:10:40;0.47;;;0.43;;
30553;SDS011;17335;50.720;7.452;2023-04-01T07:19:20;0.40;;;0.40;;
30553;SDS011;17335;50.720;7.452;2023-04-01T07:21:57;1.73;;;0.50;;
30553;SDS011;17335;50.720;7.452;2023-04-01T07:24:45;0.40;;;0.40;;
30553;SDS011;17335;50.720;7.452;2023-04-01T07:27:12;0.50;;;0.40;;
30553;SDS011;17335;50.720;7.452;2023-04-01T07:29:40;0.75;;;0.50;;
30553;SDS011;17335;50.720;7.452;2023-04-01T07:32:22;0.95;;;0.60;;
30553;SDS011;17335;50.720;7.452;2023-04-01T07:35:21;3.22;;;0.50;;
30553;SDS011;17335;50.720;7.452;2023-04-01T07:37:59;1.48;;;0.55;;
30553;SDS011;17335;50.720;7.452;2023-04-01T07:43:33;0.75;;;0.50;;
30553;SDS011;17335;50.720;7.452;2023-04-01T07:46:32;0.45;;;0.40;;
30553;SDS011;17335;50.720;7.452;2023-04-01T07:49:15;0.45;;;0.45;;
30553;SDS011;17335;50.720;7.452;2023-04-01T07:54:32;0.43;;;0.43;;
30553;SDS011;17335;50.720;7.452;2023-04-01T07:57:19;0.40;;;0.40;;
30553;SDS011;17335;50.720;7.452;2023-04-01T07:59:49;0.40;;;0.40;;
30553;SDS011;17335;50.720;7.452;2023-04-01T08:02:33;0.88;;;0.40;;
30553;SDS011;17335;50.720;7.452;2023-04-01T08:05:14;1.25;;;0.60;;
30553;SDS011;17335;50.720;7.452;2023-04-01T08:10:55;0.47;;;0.47;;
30553;SDS011;17335;50.720;7.452;2023-04-01T08:13:46;0.52;;;0.52;;
30553;SDS011;17335;50.720;7.452;2023-04-01T08:16:45;0.55;;;0.47;;
30553;SDS011;17335;50.720;7.452;2023-04-01T08:21:52;0.60;;;0.40;;
30553;SDS011;17335;50.720;7.452;2023-04-01T08:24:34;0.55;;;0.50;;
30553;SDS011;17335;50.720;7.452;2023-04-01T08:27:31;0.52;;;0.50;;
30553;SDS011;17335;50.720;7.452;2023-04-01T08:30:04;0.98;;;0.50;;
30553;SDS011;17335;50.720;7.452;2023-04-01T08:32:45;0.40;;;0.40;;
30553;SDS011;17335;50.720;7.452;2023-04-01T08:35:22;0.40;;;0.40;;
30553;SDS011;17335;50.720;7.452;2023-04-01T08:38:17;1.55;;;0.63;;
30553;SDS011;17335;50.720;7.452;2023-04-01T08:41:11;0.50;;;0.50;;
30553;SDS011;17335;50.720;7.452;2023-04-01T08:52:30;1.02;;;0.63;;
30553;SDS011;17335;50.720;7.452;2023-04-01T08:55:13;0.88;;;0.57;;
30553;SDS011;17335;50.720;7.452;2023-04-01T08:57:56;0.93;;;0.63;;
30553;SDS011;17335;50.720;7.452;2023-04-01T09:00:38;1.45;;;0.52;;
30553;SDS011;17335;50.720;7.452;2023-04-01T09:15:20;0.70;;;0.60;;
30553;SDS011;17335;50.720;7.452;2023-04-01T09:31:14;1.15;;;0.65;;
30553;SDS011;17335;50.720;7.452;2023-04-01T09:45:43;0.50;;;0.50;;
30553;SDS011;17335;50.720;7.452;2023-04-01T10:20:08;1.27;;;0.63;;
30553;SDS011;17335;50.720;7.452;2023-04-01T10:22:54;0.63;;;0.60;;
30553;SDS011;17335;50.720;7.452;2023-04-01T10:31:57;1.58;;;0.52;;
30553;SDS011;17335;50.720;7.452;2023-04-01T10:35:21;1.15;;;0.60;;
30553;SDS011;17335;50.720;7.452;2023-04-01T10:40:46;1.27;;;0.70;;
30553;SDS011;17335;50.720;7.452;2023-04-01T10:54:17;0.60;;;0.60;;
30553;SDS011;17335;50.720;7.452;2023-04-01T10:57:10;1.35;;;0.80;;
30553;SDS011;17335;50.720;7.452;2023-04-01T11:27:34;1.00;;;0.70;;
30553;SDS011;17335;50.720;7.452;2023-04-01T11:44:38;0.70;;;0.50;;
30553;SDS011;17335;50.720;7.452;2023-04-01T11:49:49;0.82;;;0.60;;
30553;SDS011;17335;50.720;7.452;2023-04-01T12:09:24;1.23;;;0.80;;
30553;SDS011;17335;50.720;7.452;2023-04-01T12:20:27;0.68;;;0.57;;
30553;SDS011;17335;50.720;7.452;2023-04-01T12:28:39;1.17;;;0.70;;
30553;SDS011;17335;50.720;7.452;2023-04-01T12:34:04;0.70;;;0.65;;
30553;SDS011;17335;50.720;7.452;2023-04-01T12:45:19;0.68;;;0.60;;
30553;SDS011;17335;50.720;7.452;2023-04-01T12:53:42;1.85;;;0.70;;
30553;SDS011;17335;50.720;7.452;2023-04-01T13:05:39;2.30;;;1.10;;
30553;SDS011;17335;50.720;7.452;2023-04-01T13:08:33;1.73;;;0.70;;
30553;SDS011;17335;50.720;7.452;2023-04-01T13:16:26;1.23;;;0.80;;
30553;SDS011;17335;50.720;7.452;2023-04-01T13:27:01;1.05;;;0.70;;
30553;SDS011;17335;50.720;7.452;2023-04-01T13:30:30;1.33;;;0.70;;
30553;SDS011;17335;50.720;7.452;2023-04-01T13:33:01;1.02;;;0.77;;
30553;SDS011;17335;50.720;7.452;2023-04-01T13:47:05;0.80;;;0.73;;
30553;SDS011;17335;50.720;7.452;2023-04-01T13:55:24;1.45;;;0.75;;
30553;SDS011;17335;50.720;7.452;2023-04-01T14:00:55;1.77;;;0.80;;
30553;SDS011;17335;50.720;7.452;2023-04-01T14:03:37;2.08;;;0.90;;
30553;SDS011;17335;50.720;7.452;2023-04-01T14:17:03;1.33;;;0.70;;
30553;SDS011;17335;50.720;7.452;2023-04-01T14:22:05;0.77;;;0.70;;
30553;SDS011;17335;50.720;7.452;2023-04-01T14:27:23;1.77;;;0.98;;
30553;SDS011;17335;50.720;7.452;2023-04-01T14:30:04;1.35;;;0.80;;
30553;SDS011;17335;50.720;7.452;2023-04-01T14:35:40;1.25;;;0.85;;
30553;SDS011;17335;50.720;7.452;2023-04-01T14:48:53;1.63;;;1.00;;
30553;SDS011;17335;50.720;7.452;2023-04-01T14:51:39;1.50;;;1.00;;
30553;SDS011;17335;50.720;7.452;2023-04-01T14:59:07;1.73;;;1.10;;
30553;SDS011;17335;50.720;7.452;2023-04-01T15:04:38;1.73;;;1.10;;
30553;SDS011;17335;50.720;7.452;2023-04-01T15:16:09;1.52;;;1.00;;
30553;SDS011;17335;50.720;7.452;2023-04-01T15:18:56;4.22;;;1.20;;
30553;SDS011;17335;50.720;7.452;2023-04-01T15:24:38;1.55;;;1.08;;
30553;SDS011;17335;50.720;7.452;2023-04-01T15:32:50;2.92;;;1.45;;
30553;SDS011;17335;50.720;7.452;2023-04-01T15:37:56;1.92;;;1.30;;
30553;SDS011;17335;50.720;7.452;2023-04-01T16:06:12;3.00;;;1.25;;
30553;SDS011;17335;50.720;7.452;2023-04-01T16:14:31;3.53;;;1.20;;
30553;SDS011;17335;50.720;7.452;2023-04-01T16:19:49;1.55;;;1.15;;
30553;SDS011;17335;50.720;7.452;2023-04-01T16:25:39;1.75;;;1.10;;
30553;SDS011;17335;50.720;7.452;2023-04-01T16:28:22;1.80;;;1.20;;
30553;SDS011;17335;50.720;7.452;2023-04-01T16:30:58;2.05;;;1.10;;
30553;SDS011;17335;50.720;7.452;2023-04-01T16:33:47;1.92;;;1.10;;
30553;SDS011;17335;50.720;7.452;2023-04-01T16:36:32;2.20;;;1.15;;
30553;SDS011;17335;50.720;7.452;2023-04-01T16:44:29;2.35;;;1.10;;
30553;SDS011;17335;50.720;7.452;2023-04-01T16:46:57;1.42;;;0.90;;
30553;SDS011;17335;50.720;7.452;2023-04-01T16:49:37;2.40;;;1.00;;
30553;SDS011;17335;50.720;7.452;2023-04-01T16:54:42;1.45;;;0.82;;
30553;SDS011;17335;50.720;7.452;2023-04-01T16:57:25;1.85;;;1.15;;
30553;SDS011;17335;50.720;7.452;2023-04-01T17:02:31;1.77;;;1.08;;
30553;SDS011;17335;50.720;7.452;2023-04-01T17:18:42;1.55;;;1.00;;
30553;SDS011;17335;50.720;7.452;2023-04-01T17:27:26;2.20;;;1.05;;
30553;SDS011;17335;50.720;7.452;2023-04-01T17:32:53;5.85;;;1.40;;
30553;SDS011;17335;50.720;7.452;2023-04-01T17:49:56;1.88;;;1.10;;
30553;SDS011;17335;50.720;7.452;2023-04-01T17:52:39;1.42;;;1.08;;
30553;SDS011;17335;50.720;7.452;2023-04-01T18:06:34;3.15;;;1.30;;
30553;SDS011;17335;50.720;7.452;2023-04-01T18:14:31;2.10;;;1.55;;
30553;SDS011;17335;50.720;7.452;2023-04-01T18:25:15;3.13;;;1.75;;
30553;SDS011;17335;50.720;7.452;2023-04-01T18:36:03;2.95;;;1.73;;
30553;SDS011;17335;50.720;7.452;2023-04-01T18:38:52;2.47;;;1.50;;
30553;SDS011;17335;50.720;7.452;2023-04-01T18:41:25;4.70;;;1.58;;
30553;SDS011;17335;50.720;7.452;2023-04-01T18:47:03;3.05;;;1.92;;
30553;SDS011;17335;50.720;7.452;2023-04-01T18:52:21;2.55;;;1.42;;
30553;SDS011;17335;50.720;7.452;2023-04-01T19:00:26;2.67;;;1.70;;
30553;SDS011;17335;50.720;7.452;2023-04-01T19:05:48;3.15;;;1.73;;
30553;SDS011;17335;50.720;7.452;2023-04-01T19:08:28;4.00;;;2.13;;
30553;SDS011;17335;50.720;7.452;2023-04-01T19:14:06;5.95;;;2.00;;
30553;SDS011;17335;50.720;7.452;2023-04-01T19:16:56;3.08;;;1.60;;
30553;SDS011;17335;50.720;7.452;2023-04-01T19:27:26;6.63;;;2.10;;
30553;SDS011;17335;50.720;7.452;2023-04-01T19:57:15;5.45;;;2.92;;
30553;SDS011;17335;50.720;7.452;2023-04-01T20:05:29;3.85;;;2.35;;
30553;SDS011;17335;50.720;7.452;2023-04-01T20:16:00;4.80;;;2.63;;
30553;SDS011;17335;50.720;7.452;2023-04-01T20:26:40;5.60;;;2.83;;
30553;SDS011;17335;50.720;7.452;2023-04-01T20:34:45;5.53;;;3.15;;
30553;SDS011;17335;50.720;7.452;2023-04-01T20:37:21;4.38;;;2.50;;
30553;SDS011;17335;50.720;7.452;2023-04-01T20:43:22;4.90;;;2.80;;
30553;SDS011;17335;50.720;7.452;2023-04-01T20:46:06;4.45;;;2.60;;
30553;SDS011;17335;50.720;7.452;2023-04-01T20:51:43;4.57;;;2.75;;
30553;SDS011;17335;50.720;7.452;2023-04-01T20:57:12;4.32;;;2.58;;
30553;SDS011;17335;50.720;7.452;2023-04-01T21:02:50;4.90;;;2.45;;
30553;SDS011;17335;50.720;7.452;2023-04-01T21:19:17;7.65;;;2.38;;
30553;SDS011;17335;50.720;7.452;2023-04-01T21:32:47;4.13;;;2.40;;
30553;SDS011;17335;50.720;7.452;2023-04-01T21:41:27;3.65;;;1.90;;
30553;SDS011;17335;50.720;7.452;2023-04-01T21:43:58;5.05;;;2.00;;
30553;SDS011;17335;50.720;7.452;2023-04-01T22:05:56;2.40;;;1.48;;
30553;SDS011;17335;50.720;7.452;2023-04-01T22:22:31;3.20;;;1.77;;
30553;SDS011;17335;50.720;7.452;2023-04-01T22:25:16;3.70;;;2.03;;
30553;SDS011;17335;50.720;7.452;2023-04-01T22:28:46;3.47;;;2.03;;
30553;SDS011;17335;50.720;7.452;2023-04-01T22:31:06;3.13;;;1.85;;
30553;SDS011;17335;50.720;7.452;2023-04-01T22:33:50;3.33;;;1.98;;
30553;SDS011;17335;50.720;7.452;2023-04-01T22:47:55;3.00;;;1.40;;
30553;SDS011;17335;50.720;7.452;2023-04-01T22:50:39;2.88;;;1.52;;
30553;SDS011;17335;50.720;7.452;2023-04-01T22:56:11;3.47;;;1.55;;
30553;SDS011;17335;50.720;7.452;2023-04-01T22:58:43;2.10;;;1.30;;
30553;SDS011;17335;50.720;7.452;2023-04-01T23:01:19;2.92;;;1.67;;
30553;SDS011;17335;50.720;7.452;2023-04-01T23:03:51;4.38;;;1.40;;
30553;SDS011;17335;50.720;7.452;2023-04-01T23:06:22;2.33;;;1.30;;
30553;SDS011;17335;50.720;7.452;2023-04-01T23:08:56;2.45;;;1.50;;
30553;SDS011;17335;50.720;7.452;2023-04-01T23:12:05;2.47;;;1.25;;
30553;SDS011;17335;50.720;7.452;2023-04-01T23:25:56;3.67;;;1.90;;
30553;SDS011;17335;50.720;7.452;2023-04-01T23:28:41;2.95;;;1.70;;
30553;SDS011;17335;50.720;7.452;2023-04-01T23:36:42;5.10;;;1.70;;
30553;SDS011;17335;50.720;7.452;2023-04-01T23:39:23;2.83;;;1.70;;
30553;SDS011;17335;50.720;7.452;2023-04-01T23:41:56;7.47;;;1.75;;
30553;SDS011;17335;50.720;7.452;2023-04-01T23:44:28;3.70;;;1.88;;
30553;SDS011;17335;50.720;7.452;2023-04-01T23:46:56;3.42;;;1.77;;
30553;SDS011;17335;50.720;7.452;2023-04-01T23:49:25;3.65;;;1.80;;
30553;SDS011;17335;50.720;7.452;2023-04-01T23:52:44;3.22;;;1.70;;
30553;SDS011;17335;50.720;7.452;2023-04-01T23:57:36;2.85;;;1.63;;
